Macon, Georgia
Current Conditions -  °F | °C
As of 10:53 PM on Sunday 23 Nov 2014 (Local Time) from KMCN Reporting Station
Overcast Overcast  
Wind Chill: 63°   Ceiling: 1500
Heat Index: 63°   Visibility: 10mi
Dew Point: 62°   Wind: 10mph
Humidity: 97%   Direction: 210°SSW
Pressure: 29.8"   Gusts: 20mph
Location:  32.84°N, 83.64°W
Report Text: KMCN 240353Z AUTO 21009G17KT 10SM OVC015 17/17 A2980 RMK AO2 SLP088 T01720167 TSNO
Loading
Personal Weather Stations






























Interactive Weather Map New forecast layout! Learn more

10-Day Weather Forecast

Advertisements
Track Severe Weather on mobile